Time;durP1;ratioP1;P1;durP2;ratioP2;P2;SDS_P1;SDS_P2;PMS_P1;PMS_P2;Temp;Humidity;BMP_temperature;BMP_pressure;BME280_temperature;BME280_humidity;BME280_pressure;Samples;Min_cycle;Max_cycle;Signal;HPM_P1;HPM_P2
2023/08/07 00:01:01;;;;;;;;;;;14.60;99.90;;;;;;5015740;28;19933;-89
2023/08/07 00:03:27;;;;;;;;;;;14.60;99.90;;;;;;5030738;28;19909;-91
2023/08/07 00:05:55;;;;;;;;;;;14.60;99.90;;;;;;5030855;28;20329;-91
2023/08/07 00:08:36;;;;;;;;;;;14.50;99.90;;;;;;5029796;28;19928;-92
2023/08/07 00:11:07;;;;;;;;;;;14.50;99.90;;;;;;5030810;28;19940;-92
2023/08/07 00:13:44;;;;;;;;;;;14.50;99.90;;;;;;5014203;28;20440;-90
2023/08/07 00:16:12;;;;;;;;;;;14.50;99.90;;;;;;5031075;28;19960;-92
2023/08/07 00:18:43;;;;;;;;;;;14.50;99.90;;;;;;5030635;28;19916;-92
2023/08/07 00:21:18;;;;;;;;;;;;;;;;;;;;;
2023/08/07 00:23:44;;;;;;;;;;;14.50;99.90;;;;;;5015513;28;19924;-91
2023/08/07 00:26:12;;;;;;;;;;;14.50;99.90;;;;;;5029877;28;20008;-93
2023/08/07 00:28:43;;;;;;;;;;;14.50;99.90;;;;;;5030259;28;20004;-90
2023/08/07 00:31:38;;;;;;;;;;;14.50;99.90;;;;;;5030554;28;19909;-90
2023/08/07 00:34:04;;;;;;;;;;;14.50;99.90;;;;;;4997500;28;19910;-91
2023/08/07 00:36:34;;;;;;;;;;;14.50;99.90;;;;;;5030584;28;19909;-91
2023/08/07 00:39:08;;;;;;;;;;;14.50;99.90;;;;;;5014428;28;20226;-91
2023/08/07 00:41:36;;;;;;;;;;;14.50;99.90;;;;;;5030022;28;20004;-92
2023/08/07 00:44:14;;;;;;;;;;;;;;;;;;;;;
2023/08/07 00:46:59;;;;;;;;;;;14.60;99.90;;;;;;4984364;28;22622;-92
2023/08/07 00:49:27;;;;;;;;;;;14.60;99.90;;;;;;5002356;28;19922;-91
2023/08/07 00:51:58;;;;;;;;;;;14.60;99.90;;;;;;5038826;28;19928;-91
2023/08/07 00:54:25;;;;;;;;;;;14.60;99.90;;;;;;5032948;28;19914;-91
2023/08/07 00:56:56;;;;;;;;;;;14.60;99.90;;;;;;5036195;28;20004;-93
2023/08/07 00:59:42;;;;;;;;;;;14.60;99.90;;;;;;5025714;28;19916;-93
2023/08/07 01:02:17;;;;;;;;;;;14.60;99.90;;;;;;5002088;28;20272;-90
2023/08/07 01:04:52;;;;;;;;;;;14.60;99.90;;;;;;5025886;28;19921;-93
2023/08/07 01:07:17;;;;;;;;;;;14.60;99.90;;;;;;5000424;28;19914;-91
2023/08/07 01:10:06;;;;;;;;;;;14.60;99.90;;;;;;5015034;28;19917;-92
2023/08/07 01:13:11;;;;;;;;;;;14.60;99.90;;;;;;4956498;28;19920;-92
2023/08/07 01:15:47;;;;;;;;;;;;;;;;;;;;;
2023/08/07 01:18:17;;;;;;;;;;;14.60;99.90;;;;;;5020298;28;20016;-90
2023/08/07 01:21:00;;;;;;;;;;;14.60;99.90;;;;;;5033615;28;19964;-91
2023/08/07 01:23:28;;;;;;;;;;;14.60;99.90;;;;;;5031952;28;19964;-91
2023/08/07 01:25:56;;;;;;;;;;;14.60;99.90;;;;;;5038810;28;19968;-91
2023/08/07 01:28:33;;;;;;;;;;;14.60;99.90;;;;;;5030961;28;20008;-93
2023/08/07 01:31:09;;;;;;;;;;;14.60;99.90;;;;;;5032335;28;19993;-93
2023/08/07 01:33:42;;;;;;;;;;;14.60;99.90;;;;;;5025004;28;19910;-91
2023/08/07 01:36:17;;;;;;;;;;;14.60;99.90;;;;;;5042086;28;19909;-92
2023/08/07 01:38:48;;;;;;;;;;;14.60;99.90;;;;;;5034953;28;19916;-92
2023/08/07 01:41:14;;;;;;;;;;;14.60;99.90;;;;;;5038619;28;19920;-92
2023/08/07 01:43:45;;;;;;;;;;;14.60;99.90;;;;;;5033598;28;20004;-91
2023/08/07 01:46:14;;;;;;;;;;;14.60;99.90;;;;;;5033319;28;19913;-92
2023/08/07 01:48:44;;;;;;;;;;;14.60;99.90;;;;;;5033975;28;19914;-91
2023/08/07 01:51:13;;;;;;;;;;;14.60;99.90;;;;;;5018735;28;19913;-91
2023/08/07 01:53:48;;;;;;;;;;;;;;;;;;;;;
2023/08/07 01:56:20;;;;;;;;;;;14.60;99.90;;;;;;5018610;28;19913;-91
2023/08/07 01:58:56;;;;;;;;;;;14.60;99.90;;;;;;5032868;28;19909;-91
2023/08/07 02:01:24;;;;;;;;;;;14.60;99.90;;;;;;5039245;28;19909;-91
2023/08/07 02:03:52;;;;;;;;;;;14.60;99.90;;;;;;5022501;28;19902;-91
2023/08/07 02:06:27;;;;;;;;;;;14.60;99.90;;;;;;5055850;28;19922;-92
2023/08/07 02:08:58;;;;;;;;;;;14.50;99.90;;;;;;4992004;28;19914;-90
2023/08/07 02:11:37;;;;;;;;;;;14.50;99.90;;;;;;5017851;28;19914;-90
2023/08/07 02:14:03;;;;;;;;;;;14.50;99.90;;;;;;5033542;28;19932;-91
2023/08/07 02:16:48;;;;;;;;;;;14.50;99.90;;;;;;5017799;28;20361;-90
2023/08/07 02:19:17;;;;;;;;;;;14.50;99.90;;;;;;5033172;28;19921;-91
2023/08/07 02:21:43;;;;;;;;;;;14.50;99.90;;;;;;5032902;28;19944;-92
2023/08/07 02:24:13;;;;;;;;;;;14.50;99.90;;;;;;5017540;28;19917;-91
2023/08/07 02:26:39;;;;;;;;;;;14.50;99.90;;;;;;4984016;28;20395;-93
2023/08/07 02:29:07;;;;;;;;;;;14.50;99.90;;;;;;5032802;28;19909;-91
2023/08/07 02:31:32;;;;;;;;;;;14.50;99.90;;;;;;5000061;28;19909;-91
2023/08/07 02:34:00;;;;;;;;;;;14.50;99.90;;;;;;5017844;28;20056;-89
2023/08/07 02:36:28;;;;;;;;;;;14.60;99.90;;;;;;4999786;28;19964;-93
2023/08/07 02:38:54;;;;;;;;;;;14.50;99.90;;;;;;5032832;28;19985;-91
2023/08/07 02:41:31;;;;;;;;;;;14.50;99.90;;;;;;5010732;28;19909;-91
2023/08/07 02:43:57;;;;;;;;;;;14.50;99.90;;;;;;4995922;28;19985;-91
2023/08/07 02:46:22;;;;;;;;;;;14.50;99.90;;;;;;5000465;28;19914;-91
2023/08/07 02:48:58;;;;;;;;;;;14.50;99.90;;;;;;5032031;28;19960;-90
2023/08/07 02:51:29;;;;;;;;;;;14.60;99.90;;;;;;4999621;28;19917;-90
2023/08/07 02:54:02;;;;;;;;;;;14.60;99.90;;;;;;4983181;28;19913;-91
2023/08/07 02:56:30;;;;;;;;;;;14.50;99.90;;;;;;4984032;28;19921;-90
2023/08/07 02:58:59;;;;;;;;;;;14.50;99.90;;;;;;4999867;28;20005;-90
2023/08/07 03:01:24;;;;;;;;;;;14.50;99.90;;;;;;4985342;28;20281;-92
2023/08/07 03:03:57;;;;;;;;;;;14.50;99.90;;;;;;4983587;28;19981;-90
2023/08/07 03:06:23;;;;;;;;;;;14.50;99.90;;;;;;4998764;28;19914;-91
2023/08/07 03:08:56;;;;;;;;;;;14.50;99.90;;;;;;4999558;28;19922;-92
2023/08/07 03:11:30;;;;;;;;;;;14.50;99.90;;;;;;5017024;28;19910;-91
2023/08/07 03:13:58;;;;;;;;;;;14.50;99.90;;;;;;4999404;28;20016;-90
2023/08/07 03:16:23;;;;;;;;;;;14.50;99.90;;;;;;4999634;28;19910;-91
2023/08/07 03:18:54;;;;;;;;;;;14.50;99.90;;;;;;4999209;28;19963;-91
2023/08/07 03:21:20;;;;;;;;;;;14.50;99.90;;;;;;4999308;28;19969;-91
2023/08/07 03:23:46;;;;;;;;;;;14.50;99.90;;;;;;4983362;28;19913;-91
2023/08/07 03:26:19;;;;;;;;;;;14.50;99.90;;;;;;4999769;28;19913;-91
2023/08/07 03:28:46;;;;;;;;;;;14.50;99.90;;;;;;4999902;28;19924;-91
2023/08/07 03:31:12;;;;;;;;;;;14.50;99.90;;;;;;5016240;28;19909;-90
2023/08/07 03:33:43;;;;;;;;;;;14.50;99.90;;;;;;5016166;28;20391;-95
2023/08/07 03:36:19;;;;;;;;;;;14.40;99.90;;;;;;4982572;28;19976;-91
2023/08/07 03:38:52;;;;;;;;;;;14.40;99.90;;;;;;4999287;28;19910;-92
2023/08/07 03:41:27;;;;;;;;;;;14.40;99.90;;;;;;4998564;28;19917;-92
2023/08/07 03:43:58;;;;;;;;;;;14.40;99.90;;;;;;4999164;28;19921;-92
2023/08/07 03:46:30;;;;;;;;;;;14.40;99.90;;;;;;4998526;28;19948;-92
2023/08/07 03:48:58;;;;;;;;;;;14.40;99.90;;;;;;4982810;28;20387;-91
2023/08/07 03:51:32;;;;;;;;;;;14.40;99.90;;;;;;4981906;28;19937;-91
2023/08/07 03:54:02;;;;;;;;;;;14.40;99.90;;;;;;4998103;28;20300;-91
2023/08/07 03:56:37;;;;;;;;;;;14.30;99.90;;;;;;5000570;28;19910;-93
2023/08/07 03:59:06;;;;;;;;;;;14.30;99.90;;;;;;4999210;28;19913;-91
2023/08/07 04:01:37;;;;;;;;;;;14.30;99.90;;;;;;4981070;28;19924;-92
2023/08/07 04:04:10;;;;;;;;;;;14.30;99.90;;;;;;5031188;28;19956;-91
2023/08/07 04:06:41;;;;;;;;;;;14.40;99.90;;;;;;4997891;28;20023;-92
2023/08/07 04:09:08;;;;;;;;;;;14.40;99.90;;;;;;4982520;28;19918;-91
2023/08/07 04:11:35;;;;;;;;;;;14.30;99.90;;;;;;4998900;28;19916;-92
2023/08/07 04:14:06;;;;;;;;;;;14.30;99.90;;;;;;5014360;28;19910;-91
2023/08/07 04:16:37;;;;;;;;;;;14.30;99.90;;;;;;4981949;28;19957;-91
2023/08/07 04:19:07;;;;;;;;;;;14.30;99.90;;;;;;4982674;28;20283;-91
2023/08/07 04:21:35;;;;;;;;;;;14.30;99.90;;;;;;4980748;28;19945;-91
2023/08/07 04:24:01;;;;;;;;;;;14.30;99.90;;;;;;4995635;28;20004;-92
2023/08/07 04:26:46;;;;;;;;;;;14.30;99.90;;;;;;4978030;28;20444;-91
2023/08/07 04:29:25;;;;;;;;;;;14.30;99.90;;;;;;4978348;28;19913;-91
2023/08/07 04:31:58;;;;;;;;;;;14.30;99.90;;;;;;4963447;28;19941;-92
2023/08/07 04:34:34;;;;;;;;;;;14.30;99.90;;;;;;4979143;28;19913;-93
2023/08/07 04:37:05;;;;;;;;;;;14.30;99.90;;;;;;4963513;28;19914;-92
2023/08/07 04:39:41;;;;;;;;;;;14.30;99.90;;;;;;4978490;28;19953;-92
2023/08/07 04:42:09;;;;;;;;;;;14.30;99.90;;;;;;4962185;28;19936;-92
2023/08/07 04:44:34;;;;;;;;;;;14.40;99.90;;;;;;4978582;28;19914;-92
2023/08/07 04:47:17;;;;;;;;;;;14.40;99.90;;;;;;4995977;28;19921;-92
2023/08/07 04:49:48;;;;;;;;;;;14.40;99.90;;;;;;4978760;28;19964;-92
2023/08/07 04:55:22;;;;;;;;;;;14.40;99.90;;;;;;4988814;28;19922;-93
2023/08/07 04:57:54;;;;;;;;;;;14.40;99.90;;;;;;5017957;28;19898;-95
2023/08/07 05:00:36;;;;;;;;;;;;;;;;;;;;;
2023/08/07 05:03:02;;;;;;;;;;;14.40;99.90;;;;;;4994446;28;19916;-91
2023/08/07 05:05:33;;;;;;;;;;;14.50;99.90;;;;;;4995725;28;20020;-91
2023/08/07 05:08:02;;;;;;;;;;;14.50;99.90;;;;;;4994044;28;19949;-90
2023/08/07 05:10:30;;;;;;;;;;;14.50;99.90;;;;;;4979631;28;19921;-91
2023/08/07 05:12:58;;;;;;;;;;;14.50;99.90;;;;;;4997182;28;19910;-91
2023/08/07 05:15:32;;;;;;;;;;;14.40;99.90;;;;;;4998559;28;19943;-92
2023/08/07 05:18:03;;;;;;;;;;;14.50;99.90;;;;;;4982528;28;19917;-91
2023/08/07 05:20:58;;;;;;;;;;;;;;;;;;;;;
2023/08/07 05:23:33;;;;;;;;;;;14.50;99.90;;;;;;5019337;28;20304;-92
2023/08/07 05:25:59;;;;;;;;;;;14.50;99.90;;;;;;5017720;28;20396;-90
2023/08/07 05:28:25;;;;;;;;;;;14.50;99.90;;;;;;5017963;28;19945;-92
2023/08/07 05:30:50;;;;;;;;;;;14.50;99.90;;;;;;5017302;28;20266;-91
2023/08/07 05:33:16;;;;;;;;;;;14.50;99.90;;;;;;5018907;28;19909;-91
2023/08/07 05:35:47;;;;;;;;;;;14.50;99.90;;;;;;5018342;28;20004;-90
2023/08/07 05:38:13;;;;;;;;;;;14.50;99.90;;;;;;5018607;28;20013;-93
2023/08/07 05:40:41;;;;;;;;;;;14.60;99.90;;;;;;5001772;28;20286;-91
2023/08/07 05:43:17;;;;;;;;;;;;;;;;;;;;;
2023/08/07 05:45:44;;;;;;;;;;;14.60;99.90;;;;;;5019405;28;20246;-91
2023/08/07 05:48:12;;;;;;;;;;;14.60;99.90;;;;;;5017972;28;19920;-90
2023/08/07 05:50:41;;;;;;;;;;;14.60;99.90;;;;;;5018699;28;19916;-91
2023/08/07 05:53:06;;;;;;;;;;;14.60;99.90;;;;;;5027742;28;19916;-91
2023/08/07 05:55:34;;;;;;;;;;;14.60;99.90;;;;;;5031373;28;19909;-91
2023/08/07 05:58:00;;;;;;;;;;;14.60;99.90;;;;;;5022629;28;19918;-92
2023/08/07 06:00:28;;;;;;;;;;;14.70;99.90;;;;;;5000461;28;19920;-92
2023/08/07 06:03:04;;;;;;;;;;;14.70;99.90;;;;;;5001223;28;19921;-93
2023/08/07 06:08:32;;;;;;;;;;;14.70;99.90;;;;;;5018030;28;20365;-91
2023/08/07 06:11:18;;;;;;;;;;;;;;;;;;;;;
2023/08/07 06:14:14;;;;;;;;;;;14.70;99.90;;;;;;5018793;28;19917;-92
2023/08/07 06:16:42;;;;;;;;;;;14.70;99.90;;;;;;5017492;28;19983;-92
2023/08/07 06:19:20;;;;;;;;;;;;;;;;;;;;;
2023/08/07 06:22:11;;;;;;;;;;;14.70;99.90;;;;;;4995286;28;19932;-91
2023/08/07 06:25:02;;;;;;;;;;;14.80;99.90;;;;;;4985044;28;19913;-91
2023/08/07 06:27:30;;;;;;;;;;;14.80;99.90;;;;;;5001239;28;19913;-91
2023/08/07 06:29:59;;;;;;;;;;;14.80;99.90;;;;;;4999943;28;19920;-91
2023/08/07 06:32:29;;;;;;;;;;;14.80;99.90;;;;;;5000935;28;19924;-90
2023/08/07 06:35:07;;;;;;;;;;;;;;;;;;;;;
2023/08/07 06:38:00;;;;;;;;;;;14.90;99.90;;;;;;5002057;28;19913;-91
2023/08/07 06:43:36;;;;;;;;;;;14.80;99.90;;;;;;4978812;28;19910;-91
2023/08/07 07:10:34;;;;;;;;;;;15.10;99.90;;;;;;5003205;22;19925;-94
2023/08/07 07:13:50;;;;;;;;;;;15.10;99.90;;;;;;5020485;28;20286;-94
2023/08/07 07:16:26;;;;;;;;;;;;;;;;;;;;;
2023/08/07 07:19:01;;;;;;;;;;;15.20;99.90;;;;;;5037191;28;19915;-95
2023/08/07 07:21:32;;;;;;;;;;;15.20;99.90;;;;;;5018591;28;19948;-94
2023/08/07 07:24:01;;;;;;;;;;;15.20;99.90;;;;;;5019117;28;19936;-93
2023/08/07 07:26:32;;;;;;;;;;;15.20;99.90;;;;;;5017934;28;19917;-94
2023/08/07 07:29:27;;;;;;;;;;;15.30;99.90;;;;;;5003159;28;19920;-94
2023/08/07 07:31:53;;;;;;;;;;;15.30;99.90;;;;;;5022764;28;20000;-93
2023/08/07 07:34:22;;;;;;;;;;;15.30;99.90;;;;;;5019240;28;19914;-95
2023/08/07 07:36:48;;;;;;;;;;;15.30;99.90;;;;;;5018976;28;19964;-93
2023/08/07 07:39:17;;;;;;;;;;;15.30;99.90;;;;;;5018890;28;19913;-93
2023/08/07 07:41:42;;;;;;;;;;;15.30;99.90;;;;;;5018501;28;19917;-92
2023/08/07 07:44:08;;;;;;;;;;;15.30;99.90;;;;;;5018605;28;20000;-92
2023/08/07 07:46:36;;;;;;;;;;;15.30;99.90;;;;;;5018687;28;19924;-93
2023/08/07 07:49:04;;;;;;;;;;;15.30;99.90;;;;;;5018668;28;19996;-93
2023/08/07 07:51:30;;;;;;;;;;;15.30;99.90;;;;;;5018677;28;19931;-92
2023/08/07 07:53:58;;;;;;;;;;;15.40;99.90;;;;;;5019115;28;20000;-93
2023/08/07 07:56:24;;;;;;;;;;;15.40;99.90;;;;;;5018345;28;20277;-94
2023/08/07 07:58:50;;;;;;;;;;;15.50;99.90;;;;;;5018696;28;19951;-94
2023/08/07 08:01:17;;;;;;;;;;;15.50;99.90;;;;;;5003041;28;19913;-95
2023/08/07 08:03:43;;;;;;;;;;;15.50;99.90;;;;;;5019110;28;19909;-94
2023/08/07 08:06:13;;;;;;;;;;;15.50;99.90;;;;;;5002722;28;19923;-96
2023/08/07 08:08:39;;;;;;;;;;;15.50;99.90;;;;;;5018687;28;19944;-94
2023/08/07 08:11:16;;;;;;;;;;;15.50;99.90;;;;;;5019076;28;19909;-93
2023/08/07 08:13:45;;;;;;;;;;;15.50;99.90;;;;;;5019444;28;19913;-92
2023/08/07 08:16:17;;;;;;;;;;;15.50;99.90;;;;;;5017287;28;19932;-92
2023/08/07 08:18:48;;;;;;;;;;;15.50;99.90;;;;;;5019119;28;19909;-92
2023/08/07 08:21:25;;;;;;;;;;;15.60;99.90;;;;;;5018609;28;19992;-92
2023/08/07 08:23:53;;;;;;;;;;;15.60;99.90;;;;;;5018556;28;19909;-92
2023/08/07 08:26:18;;;;;;;;;;;15.70;99.90;;;;;;5020075;28;19917;-92
2023/08/07 08:34:40;;;;;;;;;;;15.80;99.90;;;;;;5036174;28;19916;-93
2023/08/07 08:37:45;;;;;;;;;;;;;;;;;;;;;
2023/08/07 08:40:21;;;;;;;;;;;15.80;99.90;;;;;;5035553;28;19909;-94
2023/08/07 08:42:47;;;;;;;;;;;15.90;99.90;;;;;;5003758;28;19917;-94
2023/08/07 08:45:17;;;;;;;;;;;15.90;99.90;;;;;;5023857;28;19920;-95
2023/08/07 08:47:51;;;;;;;;;;;15.90;99.90;;;;;;5034708;28;19909;-94
2023/08/07 08:50:20;;;;;;;;;;;15.90;99.90;;;;;;5033188;28;19909;-94
2023/08/07 08:52:46;;;;;;;;;;;15.80;99.90;;;;;;5031624;28;19951;-94
2023/08/07 08:55:15;;;;;;;;;;;15.80;99.90;;;;;;5032886;28;19932;-94
2023/08/07 08:57:41;;;;;;;;;;;15.80;99.90;;;;;;5033227;28;19909;-95
2023/08/07 09:00:20;;;;;;;;;;;15.80;99.90;;;;;;5017401;28;19936;-95
2023/08/07 09:02:50;;;;;;;;;;;15.80;99.90;;;;;;5024250;28;19999;-92
2023/08/07 09:05:17;;;;;;;;;;;15.80;99.90;;;;;;5018039;28;19913;-91
2023/08/07 09:07:46;;;;;;;;;;;15.80;99.90;;;;;;5002006;28;19914;-93
2023/08/07 09:10:13;;;;;;;;;;;15.90;99.90;;;;;;5018859;28;19909;-92
2023/08/07 09:16:12;;;;;;;;;;;16.00;99.90;;;;;;5036096;28;20428;-92
2023/08/07 09:18:48;;;;;;;;;;;16.00;99.90;;;;;;5018849;28;20000;-92
2023/08/07 09:21:29;;;;;;;;;;;16.10;99.90;;;;;;5018471;28;19913;-93
2023/08/07 09:24:14;;;;;;;;;;;16.10;99.90;;;;;;5018170;28;19916;-92
2023/08/07 09:27:05;;;;;;;;;;;16.10;99.90;;;;;;5017107;28;19924;-93
2023/08/07 09:29:38;;;;;;;;;;;16.20;99.90;;;;;;5035255;28;19916;-92
2023/08/07 09:35:25;;;;;;;;;;;16.20;99.90;;;;;;5010981;28;20346;-92
2023/08/07 09:47:06;;;;;;;;;;;16.40;99.90;;;;;;5013597;28;19930;-93
2023/08/07 09:49:54;;;;;;;;;;;16.30;99.90;;;;;;4996902;28;20306;-93
2023/08/07 09:52:32;;;;;;;;;;;16.30;99.90;;;;;;4996986;28;20370;-93
2023/08/07 09:55:05;;;;;;;;;;;16.30;99.90;;;;;;4997613;28;19909;-92
2023/08/07 09:57:33;;;;;;;;;;;16.40;99.90;;;;;;4997972;28;20354;-93
2023/08/07 10:00:01;;;;;;;;;;;16.40;99.90;;;;;;5000379;28;19913;-92
2023/08/07 10:02:27;;;;;;;;;;;16.40;99.90;;;;;;5015911;28;19910;-91
2023/08/07 10:04:53;;;;;;;;;;;16.50;99.90;;;;;;5000872;28;19920;-92
2023/08/07 10:13:17;;;;;;;;;;;16.60;99.90;;;;;;5009691;28;19925;-95
2023/08/07 10:15:55;;;;;;;;;;;16.60;99.90;;;;;;4965496;28;19918;-93
2023/08/07 10:22:14;;;;;;;;;;;16.70;99.90;;;;;;4995805;28;19949;-94
2023/08/07 10:28:00;;;;;;;;;;;16.70;99.90;;;;;;4942131;29;20407;-93
2023/08/07 10:43:32;;;;;;;;;;;;;;;;;;;;;
2023/08/07 10:46:23;;;;;;;;;;;16.80;99.90;;;;;;4911678;29;19922;-92
2023/08/07 10:49:04;;;;;;;;;;;16.70;99.90;;;;;;4950114;28;19917;-93
2023/08/07 10:52:04;;;;;;;;;;;16.60;99.90;;;;;;4943594;28;19937;-93
2023/08/07 10:55:04;;;;;;;;;;;16.60;99.90;;;;;;4976591;28;19910;-93
2023/08/07 10:58:11;;;;;;;;;;;;;;;;;;;;;
2023/08/07 11:00:38;;;;;;;;;;;16.60;99.90;;;;;;4968442;28;19953;-96
2023/08/07 11:03:03;;;;;;;;;;;16.60;99.90;;;;;;4994834;28;19917;-96
2023/08/07 11:33:24;;;;;;;;;;;17.10;99.90;;;;;;4893005;29;19954;-93
2023/08/07 11:36:25;;;;;;;;;;;17.10;99.90;;;;;;4903195;29;20006;-93
2023/08/07 11:38:59;;;;;;;;;;;17.10;99.90;;;;;;4922344;29;19910;-93
2023/08/07 11:44:41;;;;;;;;;;;17.10;99.90;;;;;;4900409;29;19940;-92
2023/08/07 11:50:11;;;;;;;;;;;17.20;99.90;;;;;;4966127;29;19962;-96
2023/08/07 11:52:39;;;;;;;;;;;17.20;99.90;;;;;;4954280;28;19914;-96
2023/08/07 11:55:07;;;;;;;;;;;17.20;99.90;;;;;;4985055;28;19909;-95
2023/08/07 11:57:32;;;;;;;;;;;17.10;99.90;;;;;;4980026;28;19917;-95
2023/08/07 12:00:26;;;;;;;;;;;17.00;99.90;;;;;;4980465;28;19910;-94
2023/08/07 12:09:20;;;;;;;;;;;17.00;99.90;;;;;;4996197;28;19917;-91
2023/08/07 12:25:06;;;;;;;;;;;17.20;99.90;;;;;;4993064;28;20305;-92
2023/08/07 12:27:41;;;;;;;;;;;17.30;99.90;;;;;;4992607;28;19922;-91
2023/08/07 12:30:16;;;;;;;;;;;17.30;99.90;;;;;;4976794;28;19910;-92
2023/08/07 12:33:05;;;;;;;;;;;17.40;99.90;;;;;;4979462;28;19910;-92
2023/08/07 12:45:13;;;;;;;;;;;;;;;;;;;;;
2023/08/07 12:47:52;;;;;;;;;;;17.80;99.90;;;;;;4956100;29;19917;-93
2023/08/07 13:06:15;;;;;;;;;;;17.80;99.90;;;;;;4904193;29;19987;-94
2023/08/07 13:17:58;;;;;;;;;;;17.70;99.90;;;;;;4928034;29;19959;-93
2023/08/07 13:23:39;;;;;;;;;;;17.70;99.90;;;;;;4932562;29;19918;-94
2023/08/07 13:26:05;;;;;;;;;;;17.80;99.90;;;;;;4979911;28;19921;-95
2023/08/07 13:28:31;;;;;;;;;;;17.80;99.90;;;;;;4982448;28;20281;-91
2023/08/07 13:30:59;;;;;;;;;;;17.90;99.90;;;;;;4998373;28;20247;-91
2023/08/07 13:33:25;;;;;;;;;;;17.90;99.90;;;;;;4998819;28;19910;-89
2023/08/07 13:35:51;;;;;;;;;;;18.00;99.90;;;;;;4994294;28;19936;-91
2023/08/07 13:38:18;;;;;;;;;;;18.00;99.90;;;;;;4985536;28;19914;-93
2023/08/07 13:40:46;;;;;;;;;;;18.10;99.90;;;;;;5001694;28;19961;-93
2023/08/07 13:43:12;;;;;;;;;;;18.20;99.90;;;;;;4970728;28;19914;-93
2023/08/07 13:46:14;;;;;;;;;;;18.30;99.90;;;;;;4982551;28;19918;-93
2023/08/07 13:48:45;;;;;;;;;;;18.30;99.90;;;;;;4997813;28;19937;-92
2023/08/07 13:51:33;;;;;;;;;;;18.30;99.90;;;;;;4942684;29;20364;-91
2023/08/07 13:54:25;;;;;;;;;;;18.40;99.90;;;;;;4936459;29;19953;-92
2023/08/07 13:56:50;;;;;;;;;;;18.50;99.90;;;;;;4948905;29;19910;-93
2023/08/07 14:02:43;;;;;;;;;;;18.60;99.90;;;;;;4963753;29;19917;-93
2023/08/07 14:14:35;;;;;;;;;;;18.90;99.90;;;;;;4960399;29;19918;-95
2023/08/07 14:23:49;;;;;;;;;;;18.90;99.90;;;;;;4978558;28;19917;-93
2023/08/07 14:48:16;;;;;;;;;;;19.10;99.90;;;;;;4960962;28;19922;-95
2023/08/07 14:57:03;;;;;;;;;;;19.00;99.90;;;;;;4982059;28;19909;-96
2023/08/07 15:08:24;;;;;;;;;;;18.80;99.90;;;;;;4960986;29;19975;-93
2023/08/07 15:10:57;;;;;;;;;;;18.80;99.90;;;;;;4976436;28;19916;-94
2023/08/07 15:13:23;;;;;;;;;;;18.80;99.90;;;;;;4980863;28;19976;-94
2023/08/07 15:22:47;;;;;;;;;;;18.90;99.90;;;;;;4940123;29;19954;-94
2023/08/07 15:38:26;;;;;;;;;;;19.10;99.90;;;;;;5078343;23;19948;-92
2023/08/07 15:40:51;;;;;;;;;;;19.00;99.90;;;;;;5018819;28;19913;-90
2023/08/07 15:43:17;;;;;;;;;;;18.90;99.90;;;;;;5018413;28;19924;-91
2023/08/07 15:45:55;;;;;;;;;;;18.90;99.90;;;;;;5018324;28;20003;-94
2023/08/07 15:48:29;;;;;;;;;;;18.80;99.90;;;;;;5018298;28;19913;-92
2023/08/07 15:51:19;;;;;;;;;;;18.80;99.90;;;;;;5018352;28;19956;-92
2023/08/07 15:54:19;;;;;;;;;;;;;;;;;;;;;
2023/08/07 15:56:45;;;;;;;;;;;18.60;99.90;;;;;;5015899;28;19920;-88
2023/08/07 15:59:11;;;;;;;;;;;18.60;99.90;;;;;;5018221;28;20386;-89
2023/08/07 16:01:37;;;;;;;;;;;18.50;99.90;;;;;;5036172;28;20395;-90
2023/08/07 16:04:03;;;;;;;;;;;18.40;99.90;;;;;;5036177;28;19909;-89
2023/08/07 16:06:28;;;;;;;;;;;18.30;99.90;;;;;;5002108;28;19953;-89
2023/08/07 16:08:56;;;;;;;;;;;18.30;99.90;;;;;;5018280;28;19921;-88
2023/08/07 16:11:21;;;;;;;;;;;18.20;99.90;;;;;;5017781;28;19909;-88
2023/08/07 16:13:52;;;;;;;;;;;18.20;99.90;;;;;;5017906;28;19920;-87
2023/08/07 16:16:18;;;;;;;;;;;18.10;99.90;;;;;;5035213;28;19909;-87
2023/08/07 16:18:43;;;;;;;;;;;18.10;99.90;;;;;;5017770;28;20234;-88
2023/08/07 16:21:09;;;;;;;;;;;18.10;99.90;;;;;;5035134;28;19967;-84
2023/08/07 16:23:35;;;;;;;;;;;18.00;99.90;;;;;;5035101;28;19913;-87
2023/08/07 16:26:00;;;;;;;;;;;18.00;99.90;;;;;;5034769;28;19936;-86
2023/08/07 16:28:26;;;;;;;;;;;18.00;99.90;;;;;;5000877;28;19971;-85
2023/08/07 16:30:51;;;;;;;;;;;17.90;99.90;;;;;;5016234;28;19915;-83
2023/08/07 16:33:17;;;;;;;;;;;17.90;99.90;;;;;;5016505;28;19924;-83
2023/08/07 16:35:42;;;;;;;;;;;17.90;99.90;;;;;;5000314;28;19914;-84
2023/08/07 16:38:08;;;;;;;;;;;17.80;99.90;;;;;;5016215;28;19921;-84
2023/08/07 16:40:35;;;;;;;;;;;17.80;99.90;;;;;;5016332;28;19915;-84
2023/08/07 16:43:04;;;;;;;;;;;17.80;99.90;;;;;;5000330;28;19917;-85
2023/08/07 16:45:31;;;;;;;;;;;17.80;99.90;;;;;;5016961;28;19924;-85
2023/08/07 16:47:56;;;;;;;;;;;17.80;99.90;;;;;;5016116;28;19963;-84
2023/08/07 16:50:23;;;;;;;;;;;17.80;99.90;;;;;;5016304;28;20057;-84
2023/08/07 16:52:49;;;;;;;;;;;17.80;99.90;;;;;;5033964;28;19917;-84
2023/08/07 16:55:14;;;;;;;;;;;17.80;99.90;;;;;;5033930;28;19909;-84
2023/08/07 16:57:40;;;;;;;;;;;17.80;99.90;;;;;;5016249;28;19965;-84
2023/08/07 17:00:06;;;;;;;;;;;17.80;99.90;;;;;;5016167;28;20352;-85
2023/08/07 17:02:32;;;;;;;;;;;17.80;99.90;;;;;;5000212;28;19948;-83
2023/08/07 17:04:57;;;;;;;;;;;17.90;99.90;;;;;;4999799;28;20331;-84
2023/08/07 17:11:15;;;;;;;;;;;;;;;;;;;;;
2023/08/07 17:16:44;;;;;;;;;;;17.90;99.90;;;;;;4994219;28;19917;-94
2023/08/07 17:19:09;;;;;;;;;;;17.90;99.90;;;;;;5001170;28;19926;-74
2023/08/07 17:21:40;;;;;;;;;;;17.90;99.90;;;;;;5039233;28;19913;-91
2023/08/07 17:24:16;;;;;;;;;;;17.90;99.90;;;;;;5036869;28;19915;-91
2023/08/07 17:30:17;;;;;;;;;;;;;;;;;;;;;
2023/08/07 17:32:45;;;;;;;;;;;17.90;99.90;;;;;;5015021;28;19909;-92
2023/08/07 17:35:11;;;;;;;;;;;17.90;99.90;;;;;;4989143;28;20009;-89
2023/08/07 17:37:52;;;;;;;;;;;17.90;99.90;;;;;;5013182;28;19969;-92
2023/08/07 17:40:22;;;;;;;;;;;18.00;99.90;;;;;;4996064;28;20344;-91
2023/08/07 17:42:48;;;;;;;;;;;18.00;99.90;;;;;;4977230;28;20010;-91
2023/08/07 17:45:21;;;;;;;;;;;18.00;99.90;;;;;;4977671;28;20008;-90
2023/08/07 17:47:47;;;;;;;;;;;18.00;99.90;;;;;;4978057;28;20336;-90
2023/08/07 17:50:12;;;;;;;;;;;18.00;99.90;;;;;;4978528;28;19910;-91
2023/08/07 17:52:38;;;;;;;;;;;18.00;99.90;;;;;;4978054;28;19910;-90
2023/08/07 17:55:05;;;;;;;;;;;18.00;99.90;;;;;;4977975;28;19909;-90
2023/08/07 17:57:32;;;;;;;;;;;18.00;99.90;;;;;;4977965;28;19910;-91
2023/08/07 17:59:58;;;;;;;;;;;17.90;99.90;;;;;;4977984;28;19945;-91
2023/08/07 18:02:26;;;;;;;;;;;17.90;99.90;;;;;;4978402;28;19917;-91
2023/08/07 18:04:52;;;;;;;;;;;17.90;99.90;;;;;;4978145;28;19983;-91
2023/08/07 18:07:22;;;;;;;;;;;17.90;99.90;;;;;;4977457;28;19945;-91
2023/08/07 18:09:48;;;;;;;;;;;17.90;99.90;;;;;;4978227;28;19910;-91
2023/08/07 18:12:14;;;;;;;;;;;17.90;99.90;;;;;;4978002;28;19910;-91
2023/08/07 18:14:42;;;;;;;;;;;17.90;99.90;;;;;;4977518;28;19929;-91
2023/08/07 18:17:08;;;;;;;;;;;17.90;99.90;;;;;;4977837;28;19916;-91
2023/08/07 18:19:36;;;;;;;;;;;17.80;99.90;;;;;;4977900;28;20005;-91
2023/08/07 18:22:01;;;;;;;;;;;17.90;99.90;;;;;;4980641;28;19910;-91
2023/08/07 18:24:27;;;;;;;;;;;17.80;99.90;;;;;;4981039;28;19977;-91
2023/08/07 18:26:56;;;;;;;;;;;17.80;99.90;;;;;;4981081;28;19965;-91
2023/08/07 18:29:24;;;;;;;;;;;17.80;99.90;;;;;;4981115;28;20424;-91
2023/08/07 18:31:50;;;;;;;;;;;17.80;99.90;;;;;;4998362;28;20015;-91
2023/08/07 18:34:19;;;;;;;;;;;17.80;99.90;;;;;;4997565;28;19909;-92
2023/08/07 18:36:47;;;;;;;;;;;17.80;99.90;;;;;;4981066;28;20374;-90
2023/08/07 18:39:12;;;;;;;;;;;17.80;99.90;;;;;;4980849;28;19922;-91
2023/08/07 18:41:38;;;;;;;;;;;17.70;99.90;;;;;;4996719;28;19971;-91
2023/08/07 18:44:04;;;;;;;;;;;17.70;99.90;;;;;;4980468;28;19910;-91
2023/08/07 18:46:29;;;;;;;;;;;17.70;99.90;;;;;;4996760;28;19920;-89
2023/08/07 18:48:55;;;;;;;;;;;17.70;99.90;;;;;;4980817;28;19973;-90
2023/08/07 18:51:21;;;;;;;;;;;17.60;99.90;;;;;;4997056;28;19910;-90
2023/08/07 18:53:46;;;;;;;;;;;17.60;99.90;;;;;;4997188;28;19914;-91
2023/08/07 18:59:18;;;;;;;;;;;17.60;99.90;;;;;;4998121;28;20376;-90
2023/08/07 19:01:43;;;;;;;;;;;17.60;99.90;;;;;;4980796;28;20017;-92
2023/08/07 19:04:09;;;;;;;;;;;17.50;99.90;;;;;;4997908;28;19913;-91
2023/08/07 19:06:35;;;;;;;;;;;17.50;99.90;;;;;;5013031;28;19914;-91
2023/08/07 19:09:01;;;;;;;;;;;17.50;99.90;;;;;;4996876;28;19914;-90
2023/08/07 19:11:26;;;;;;;;;;;17.50;99.90;;;;;;4997872;28;20000;-91
2023/08/07 19:13:52;;;;;;;;;;;17.50;99.90;;;;;;4996701;28;19997;-90
2023/08/07 19:16:21;;;;;;;;;;;17.40;99.90;;;;;;4980259;28;19917;-91
2023/08/07 19:18:47;;;;;;;;;;;17.40;99.90;;;;;;4998263;28;19937;-90
2023/08/07 19:21:15;;;;;;;;;;;17.40;99.90;;;;;;4996863;28;19916;-91
2023/08/07 19:23:41;;;;;;;;;;;17.30;99.90;;;;;;4964669;28;19914;-90